sensor_id;sensor_type;location;lat;lon;timestamp;pressure;altitude;pressure_sealevel;temperature;humidity
42411;BME280;28056;51.112;0.984;2023-05-01T00:00:17;100883.00;;;14.45;51.82
42411;BME280;28056;51.112;0.984;2023-05-01T00:04:48;100876.91;;;14.86;49.79
42411;BME280;28056;51.112;0.984;2023-05-01T00:07:16;100874.05;;;15.01;49.50
42411;BME280;28056;51.112;0.984;2023-05-01T00:09:43;100869.38;;;15.10;48.71
42411;BME280;28056;51.112;0.984;2023-05-01T00:12:11;100866.72;;;14.94;50.53
42411;BME280;28056;51.112;0.984;2023-05-01T00:14:39;100867.74;;;13.77;53.92
42411;BME280;28056;51.112;0.984;2023-05-01T00:17:07;100866.48;;;14.41;53.08
42411;BME280;28056;51.112;0.984;2023-05-01T00:19:34;100865.20;;;14.51;53.06
42411;BME280;28056;51.112;0.984;2023-05-01T00:22:01;100865.33;;;13.57;54.84
42411;BME280;28056;51.112;0.984;2023-05-01T00:24:29;100863.21;;;14.06;54.31
42411;BME280;28056;51.112;0.984;2023-05-01T00:26:56;100859.25;;;14.19;53.81
42411;BME280;28056;51.112;0.984;2023-05-01T00:29:24;100854.60;;;14.57;51.92
42411;BME280;28056;51.112;0.984;2023-05-01T00:31:53;100850.67;;;14.23;53.68
42411;BME280;28056;51.112;0.984;2023-05-01T00:34:21;100842.96;;;13.45;56.15
42411;BME280;28056;51.112;0.984;2023-05-01T00:36:48;100841.15;;;13.87;54.77
42411;BME280;28056;51.112;0.984;2023-05-01T00:39:15;100838.48;;;13.49;56.35
42411;BME280;28056;51.112;0.984;2023-05-01T00:41:42;100836.86;;;14.08;54.95
42411;BME280;28056;51.112;0.984;2023-05-01T00:44:09;100830.68;;;13.85;56.84
42411;BME280;28056;51.112;0.984;2023-05-01T00:46:37;100826.74;;;13.65;55.91
42411;BME280;28056;51.112;0.984;2023-05-01T00:49:04;100824.67;;;14.03;53.82
42411;BME280;28056;51.112;0.984;2023-05-01T00:51:32;100821.75;;;14.01;55.54
42411;BME280;28056;51.112;0.984;2023-05-01T00:54:00;100819.43;;;13.22;57.47
42411;BME280;28056;51.112;0.984;2023-05-01T00:56:30;100816.44;;;13.79;57.41
42411;BME280;28056;51.112;0.984;2023-05-01T00:58:58;100816.04;;;13.05;58.82
42411;BME280;28056;51.112;0.984;2023-05-01T01:01:26;100810.73;;;12.42;60.46
42411;BME280;28056;51.112;0.984;2023-05-01T01:03:54;100805.76;;;12.14;62.86
42411;BME280;28056;51.112;0.984;2023-05-01T01:06:31;100802.86;;;12.10;63.99
42411;BME280;28056;51.112;0.984;2023-05-01T01:09:07;100797.22;;;12.77;62.08
42411;BME280;28056;51.112;0.984;2023-05-01T01:11:56;100790.82;;;12.40;63.36
42411;BME280;28056;51.112;0.984;2023-05-01T01:14:32;100787.11;;;12.37;63.09
42411;BME280;28056;51.112;0.984;2023-05-01T01:17:06;100785.26;;;12.43;63.63
42411;BME280;28056;51.112;0.984;2023-05-01T01:19:58;100784.79;;;12.36;62.95
42411;BME280;28056;51.112;0.984;2023-05-01T01:22:31;100790.35;;;11.56;65.47
42411;BME280;28056;51.112;0.984;2023-05-01T01:25:21;100786.59;;;12.15;64.89
42411;BME280;28056;51.112;0.984;2023-05-01T01:28:08;100782.43;;;11.83;63.72
42411;BME280;28056;51.112;0.984;2023-05-01T01:31:00;100781.10;;;11.30;65.94
42411;BME280;28056;51.112;0.984;2023-05-01T01:33:54;100778.34;;;11.08;66.10
42411;BME280;28056;51.112;0.984;2023-05-01T01:36:33;100774.40;;;11.27;65.63
42411;BME280;28056;51.112;0.984;2023-05-01T01:39:08;100772.32;;;11.62;64.07
42411;BME280;28056;51.112;0.984;2023-05-01T01:41:38;100768.81;;;11.23;64.93
42411;BME280;28056;51.112;0.984;2023-05-01T01:44:09;100767.46;;;11.61;65.09
42411;BME280;28056;51.112;0.984;2023-05-01T01:46:40;100766.20;;;11.32;65.27
42411;BME280;28056;51.112;0.984;2023-05-01T01:49:20;100761.76;;;11.59;64.62
42411;BME280;28056;51.112;0.984;2023-05-01T01:51:50;100755.84;;;11.69;64.31
42411;BME280;28056;51.112;0.984;2023-05-01T01:54:23;100752.08;;;12.04;63.25
42411;BME280;28056;51.112;0.984;2023-05-01T01:56:53;100749.44;;;11.71;63.58
42411;BME280;28056;51.112;0.984;2023-05-01T01:59:22;100747.93;;;12.05;62.92
42411;BME280;28056;51.112;0.984;2023-05-01T02:01:52;100747.53;;;12.23;62.39
42411;BME280;28056;51.112;0.984;2023-05-01T02:04:22;100744.99;;;12.45;61.00
42411;BME280;28056;51.112;0.984;2023-05-01T02:06:51;100741.18;;;12.70;60.84
42411;BME280;28056;51.112;0.984;2023-05-01T02:09:19;100742.45;;;12.40;61.22
42411;BME280;28056;51.112;0.984;2023-05-01T02:11:49;100744.53;;;12.29;61.42
42411;BME280;28056;51.112;0.984;2023-05-01T02:14:18;100740.70;;;12.81;59.96
42411;BME280;28056;51.112;0.984;2023-05-01T02:16:46;100742.98;;;12.90;58.87
42411;BME280;28056;51.112;0.984;2023-05-01T02:19:15;100737.92;;;12.69;59.35
42411;BME280;28056;51.112;0.984;2023-05-01T02:21:44;100739.17;;;13.17;58.40
42411;BME280;28056;51.112;0.984;2023-05-01T02:24:12;100739.04;;;13.35;57.69
42411;BME280;28056;51.112;0.984;2023-05-01T02:26:41;100737.51;;;13.35;56.96
42411;BME280;28056;51.112;0.984;2023-05-01T02:29:09;100735.05;;;13.31;56.89
42411;BME280;28056;51.112;0.984;2023-05-01T02:31:37;100732.98;;;13.85;54.83
42411;BME280;28056;51.112;0.984;2023-05-01T02:34:04;100733.64;;;13.48;55.16
42411;BME280;28056;51.112;0.984;2023-05-01T02:36:32;100731.60;;;14.01;54.90
42411;BME280;28056;51.112;0.984;2023-05-01T02:39:00;100732.17;;;14.30;53.80
42411;BME280;28056;51.112;0.984;2023-05-01T02:41:27;100730.27;;;13.74;54.08
42411;BME280;28056;51.112;0.984;2023-05-01T02:44:00;100728.37;;;14.03;53.73
42411;BME280;28056;51.112;0.984;2023-05-01T02:46:30;100727.81;;;14.10;52.50
42411;BME280;28056;51.112;0.984;2023-05-01T02:48:59;100727.33;;;14.07;52.83
42411;BME280;28056;51.112;0.984;2023-05-01T02:51:28;100724.17;;;14.23;53.48
42411;BME280;28056;51.112;0.984;2023-05-01T02:53:58;100724.41;;;14.00;53.40
42411;BME280;28056;51.112;0.984;2023-05-01T02:56:26;100724.66;;;13.89;54.15
42411;BME280;28056;51.112;0.984;2023-05-01T02:58:54;100721.62;;;13.79;54.74
42411;BME280;28056;51.112;0.984;2023-05-01T03:01:23;100716.83;;;13.46;54.22
42411;BME280;28056;51.112;0.984;2023-05-01T03:03:50;100712.16;;;13.94;53.03
42411;BME280;28056;51.112;0.984;2023-05-01T03:06:17;100708.59;;;14.37;52.06
42411;BME280;28056;51.112;0.984;2023-05-01T03:08:45;100708.47;;;14.21;51.78
42411;BME280;28056;51.112;0.984;2023-05-01T03:11:13;100705.70;;;14.08;52.35
42411;BME280;28056;51.112;0.984;2023-05-01T03:13:41;100702.20;;;14.15;51.40
42411;BME280;28056;51.112;0.984;2023-05-01T03:16:08;100705.35;;;14.43;51.07
42411;BME280;28056;51.112;0.984;2023-05-01T03:18:36;100703.91;;;14.05;51.71
42411;BME280;28056;51.112;0.984;2023-05-01T03:21:04;100703.82;;;13.85;52.53
42411;BME280;28056;51.112;0.984;2023-05-01T03:23:31;100708.74;;;13.02;55.35
42411;BME280;28056;51.112;0.984;2023-05-01T03:25:58;100706.60;;;12.83;56.04
42411;BME280;28056;51.112;0.984;2023-05-01T03:28:25;100707.86;;;12.51;57.82
42411;BME280;28056;51.112;0.984;2023-05-01T03:30:53;100706.80;;;12.38;58.13
42411;BME280;28056;51.112;0.984;2023-05-01T03:33:20;100706.46;;;12.36;58.90
42411;BME280;28056;51.112;0.984;2023-05-01T03:35:47;100708.57;;;11.28;61.56
42411;BME280;28056;51.112;0.984;2023-05-01T03:38:14;100704.81;;;11.41;62.79
42411;BME280;28056;51.112;0.984;2023-05-01T03:40:42;100710.39;;;10.81;64.51
42411;BME280;28056;51.112;0.984;2023-05-01T03:43:09;100709.68;;;10.50;65.49
42411;BME280;28056;51.112;0.984;2023-05-01T03:45:37;100709.64;;;10.31;66.67
42411;BME280;28056;51.112;0.984;2023-05-01T03:48:05;100705.05;;;10.50;66.80
42411;BME280;28056;51.112;0.984;2023-05-01T03:50:32;100706.98;;;10.54;67.56
42411;BME280;28056;51.112;0.984;2023-05-01T03:52:59;100706.93;;;10.12;68.86
42411;BME280;28056;51.112;0.984;2023-05-01T03:55:27;100702.42;;;10.58;67.48
42411;BME280;28056;51.112;0.984;2023-05-01T03:57:54;100699.02;;;10.75;66.52
42411;BME280;28056;51.112;0.984;2023-05-01T04:00:21;100700.28;;;11.51;64.55
42411;BME280;28056;51.112;0.984;2023-05-01T04:02:49;100702.12;;;10.86;66.31
42411;BME280;28056;51.112;0.984;2023-05-01T04:05:17;100701.66;;;11.21;65.48
42411;BME280;28056;51.112;0.984;2023-05-01T04:07:44;100698.78;;;10.93;65.67
42411;BME280;28056;51.112;0.984;2023-05-01T04:10:12;100694.05;;;11.43;63.95
42411;BME280;28056;51.112;0.984;2023-05-01T04:12:39;100697.34;;;10.97;64.35
42411;BME280;28056;51.112;0.984;2023-05-01T04:15:07;100700.42;;;10.44;66.11
42411;BME280;28056;51.112;0.984;2023-05-01T04:17:35;100701.83;;;10.50;66.41
42411;BME280;28056;51.112;0.984;2023-05-01T04:20:03;100707.69;;;9.58;70.89
42411;BME280;28056;51.112;0.984;2023-05-01T04:22:31;100705.63;;;9.71;70.65
42411;BME280;28056;51.112;0.984;2023-05-01T04:24:59;100704.10;;;9.43;71.22
42411;BME280;28056;51.112;0.984;2023-05-01T04:27:26;100702.81;;;9.53;71.80
42411;BME280;28056;51.112;0.984;2023-05-01T04:29:54;100701.46;;;9.38;73.32
42411;BME280;28056;51.112;0.984;2023-05-01T04:32:21;100700.56;;;10.12;71.59
42411;BME280;28056;51.112;0.984;2023-05-01T04:34:49;100703.40;;;9.46;73.20
42411;BME280;28056;51.112;0.984;2023-05-01T04:37:16;100705.36;;;10.47;69.98
42411;BME280;28056;51.112;0.984;2023-05-01T04:39:43;100705.93;;;10.94;67.58
42411;BME280;28056;51.112;0.984;2023-05-01T04:42:10;100707.26;;;10.82;67.83
42411;BME280;28056;51.112;0.984;2023-05-01T04:44:38;100707.54;;;11.47;65.43
42411;BME280;28056;51.112;0.984;2023-05-01T04:47:05;100700.09;;;11.55;63.63
42411;BME280;28056;51.112;0.984;2023-05-01T04:49:32;100698.12;;;12.12;60.75
42411;BME280;28056;51.112;0.984;2023-05-01T04:52:00;100696.71;;;12.43;59.15
42411;BME280;28056;51.112;0.984;2023-05-01T04:54:27;100697.56;;;12.73;57.61
42411;BME280;28056;51.112;0.984;2023-05-01T04:56:55;100700.15;;;12.71;57.23
42411;BME280;28056;51.112;0.984;2023-05-01T04:59:22;100698.91;;;13.02;56.95
42411;BME280;28056;51.112;0.984;2023-05-01T05:01:50;100695.97;;;13.05;56.89
42411;BME280;28056;51.112;0.984;2023-05-01T05:04:18;100695.95;;;12.87;57.44
42411;BME280;28056;51.112;0.984;2023-05-01T05:06:46;100694.55;;;13.10;56.05
42411;BME280;28056;51.112;0.984;2023-05-01T05:09:13;100695.40;;;13.05;55.32
42411;BME280;28056;51.112;0.984;2023-05-01T05:11:41;100697.24;;;13.17;55.02
42411;BME280;28056;51.112;0.984;2023-05-01T05:14:09;100698.38;;;13.28;54.23
42411;BME280;28056;51.112;0.984;2023-05-01T05:16:36;100697.35;;;13.35;54.24
42411;BME280;28056;51.112;0.984;2023-05-01T05:19:04;100696.27;;;13.60;54.19
42411;BME280;28056;51.112;0.984;2023-05-01T05:21:31;100696.99;;;13.50;53.59
42411;BME280;28056;51.112;0.984;2023-05-01T05:23:58;100700.25;;;13.21;54.41
42411;BME280;28056;51.112;0.984;2023-05-01T05:26:26;100701.12;;;12.85;55.98
42411;BME280;28056;51.112;0.984;2023-05-01T05:28:53;100698.68;;;12.37;57.26
42411;BME280;28056;51.112;0.984;2023-05-01T05:31:21;100700.38;;;12.05;59.25
42411;BME280;28056;51.112;0.984;2023-05-01T05:33:49;100697.80;;;12.34;58.62
42411;BME280;28056;51.112;0.984;2023-05-01T05:36:16;100701.19;;;12.17;59.92
42411;BME280;28056;51.112;0.984;2023-05-01T05:38:43;100700.01;;;11.32;62.34
42411;BME280;28056;51.112;0.984;2023-05-01T05:41:11;100707.04;;;10.66;64.86
42411;BME280;28056;51.112;0.984;2023-05-01T05:43:38;100700.72;;;11.76;61.95
42411;BME280;28056;51.112;0.984;2023-05-01T05:46:05;100700.67;;;11.93;62.05
42411;BME280;28056;51.112;0.984;2023-05-01T05:48:33;100700.73;;;11.77;63.35
42411;BME280;28056;51.112;0.984;2023-05-01T05:51:00;100709.85;;;10.57;67.67
42411;BME280;28056;51.112;0.984;2023-05-01T05:53:28;100712.83;;;9.91;70.84
42411;BME280;28056;51.112;0.984;2023-05-01T05:55:55;100711.22;;;10.17;73.08
42411;BME280;28056;51.112;0.984;2023-05-01T05:58:23;100713.05;;;9.46;75.49
42411;BME280;28056;51.112;0.984;2023-05-01T06:00:50;100713.89;;;9.39;78.30
42411;BME280;28056;51.112;0.984;2023-05-01T06:03:18;100710.70;;;9.03;79.59
42411;BME280;28056;51.112;0.984;2023-05-01T06:05:46;100707.51;;;8.84;80.65
42411;BME280;28056;51.112;0.984;2023-05-01T06:08:14;100714.22;;;8.67;83.42
42411;BME280;28056;51.112;0.984;2023-05-01T06:10:43;100717.50;;;8.29;86.60
42411;BME280;28056;51.112;0.984;2023-05-01T06:13:11;100716.10;;;8.57;87.32
42411;BME280;28056;51.112;0.984;2023-05-01T06:15:38;100714.23;;;8.36;87.27
42411;BME280;28056;51.112;0.984;2023-05-01T06:18:05;100715.24;;;8.49;87.89
42411;BME280;28056;51.112;0.984;2023-05-01T06:20:33;100719.07;;;8.84;87.52
42411;BME280;28056;51.112;0.984;2023-05-01T06:23:00;100718.41;;;8.46;87.37
42411;BME280;28056;51.112;0.984;2023-05-01T06:25:28;100721.40;;;8.80;88.43
42411;BME280;28056;51.112;0.984;2023-05-01T06:27:56;100720.62;;;8.70;87.19
42411;BME280;28056;51.112;0.984;2023-05-01T06:30:23;100718.85;;;9.20;86.27
42411;BME280;28056;51.112;0.984;2023-05-01T06:32:50;100721.75;;;8.88;86.99
42411;BME280;28056;51.112;0.984;2023-05-01T06:35:18;100726.03;;;8.37;88.54
42411;BME280;28056;51.112;0.984;2023-05-01T06:37:45;100727.03;;;8.94;88.07
42411;BME280;28056;51.112;0.984;2023-05-01T06:40:13;100724.44;;;8.59;89.52
42411;BME280;28056;51.112;0.984;2023-05-01T06:42:40;100723.66;;;8.95;89.80
42411;BME280;28056;51.112;0.984;2023-05-01T06:45:08;100726.99;;;8.74;91.21
42411;BME280;28056;51.112;0.984;2023-05-01T06:47:35;100730.11;;;8.92;91.43
42411;BME280;28056;51.112;0.984;2023-05-01T06:50:03;100728.59;;;9.18;91.49
42411;BME280;28056;51.112;0.984;2023-05-01T06:52:30;100724.85;;;8.69;91.28
42411;BME280;28056;51.112;0.984;2023-05-01T06:54:57;100725.62;;;8.86;91.97
42411;BME280;28056;51.112;0.984;2023-05-01T06:57:25;100724.31;;;8.59;93.10
42411;BME280;28056;51.112;0.984;2023-05-01T06:59:52;100726.18;;;8.64;94.69
42411;BME280;28056;51.112;0.984;2023-05-01T07:02:20;100728.02;;;8.51;95.80
42411;BME280;28056;51.112;0.984;2023-05-01T07:04:47;100726.47;;;8.72;95.64
42411;BME280;28056;51.112;0.984;2023-05-01T07:07:14;100723.98;;;9.35;92.92
42411;BME280;28056;51.112;0.984;2023-05-01T07:09:42;100729.98;;;9.26;94.51
42411;BME280;28056;51.112;0.984;2023-05-01T07:12:09;100737.13;;;8.98;95.07
42411;BME280;28056;51.112;0.984;2023-05-01T07:14:37;100736.13;;;8.77;92.23
42411;BME280;28056;51.112;0.984;2023-05-01T07:17:04;100733.22;;;9.03;93.58
42411;BME280;28056;51.112;0.984;2023-05-01T07:19:32;100738.12;;;9.39;93.64
42411;BME280;28056;51.112;0.984;2023-05-01T07:21:59;100739.37;;;9.12;92.88
42411;BME280;28056;51.112;0.984;2023-05-01T07:24:27;100742.02;;;9.42;93.68
42411;BME280;28056;51.112;0.984;2023-05-01T07:26:54;100740.32;;;9.20;93.34
42411;BME280;28056;51.112;0.984;2023-05-01T07:29:21;100745.65;;;9.18;94.84
42411;BME280;28056;51.112;0.984;2023-05-01T07:31:49;100746.28;;;8.95;94.59
42411;BME280;28056;51.112;0.984;2023-05-01T07:34:16;100747.84;;;8.87;95.38
42411;BME280;28056;51.112;0.984;2023-05-01T07:36:43;100746.43;;;9.43;92.22
42411;BME280;28056;51.112;0.984;2023-05-01T07:39:10;100747.48;;;9.41;93.44
42411;BME280;28056;51.112;0.984;2023-05-01T07:41:37;100750.50;;;8.92;92.84
42411;BME280;28056;51.112;0.984;2023-05-01T07:44:04;100748.40;;;9.25;93.21
42411;BME280;28056;51.112;0.984;2023-05-01T07:46:32;100744.30;;;9.32;94.52
42411;BME280;28056;51.112;0.984;2023-05-01T07:48:59;100745.88;;;9.29;95.27
42411;BME280;28056;51.112;0.984;2023-05-01T07:51:26;100744.42;;;9.49;91.52
42411;BME280;28056;51.112;0.984;2023-05-01T07:53:53;100747.86;;;10.63;86.81
42411;BME280;28056;51.112;0.984;2023-05-01T07:56:21;100753.76;;;9.94;90.45
42411;BME280;28056;51.112;0.984;2023-05-01T07:58:48;100749.73;;;10.32;87.78
42411;BME280;28056;51.112;0.984;2023-05-01T08:01:16;100750.27;;;10.32;86.99
42411;BME280;28056;51.112;0.984;2023-05-01T08:03:43;100743.71;;;10.32;87.66
42411;BME280;28056;51.112;0.984;2023-05-01T08:06:11;100747.96;;;10.45;86.14
42411;BME280;28056;51.112;0.984;2023-05-01T08:08:38;100750.25;;;10.78;88.00
42411;BME280;28056;51.112;0.984;2023-05-01T08:11:07;100749.32;;;10.32;84.32
42411;BME280;28056;51.112;0.984;2023-05-01T08:13:34;100750.80;;;10.06;83.84
42411;BME280;28056;51.112;0.984;2023-05-01T08:16:01;100755.32;;;10.03;85.01
42411;BME280;28056;51.112;0.984;2023-05-01T08:18:29;100755.52;;;10.20;84.95
42411;BME280;28056;51.112;0.984;2023-05-01T08:20:56;100756.66;;;10.46;85.48
42411;BME280;28056;51.112;0.984;2023-05-01T08:23:24;100757.96;;;10.48;82.93
42411;BME280;28056;51.112;0.984;2023-05-01T08:25:52;100753.87;;;10.25;83.69
42411;BME280;28056;51.112;0.984;2023-05-01T08:28:19;100755.67;;;10.39;83.12
42411;BME280;28056;51.112;0.984;2023-05-01T08:30:46;100752.58;;;10.52;80.56
42411;BME280;28056;51.112;0.984;2023-05-01T08:33:14;100754.92;;;10.36;82.38
42411;BME280;28056;51.112;0.984;2023-05-01T08:35:42;100756.75;;;10.96;79.17
42411;BME280;28056;51.112;0.984;2023-05-01T08:38:10;100756.38;;;10.38;79.47
42411;BME280;28056;51.112;0.984;2023-05-01T08:40:38;100758.44;;;10.60;78.77
42411;BME280;28056;51.112;0.984;2023-05-01T08:43:06;100764.93;;;9.90;82.40
42411;BME280;28056;51.112;0.984;2023-05-01T08:45:35;100763.71;;;10.36;80.08
42411;BME280;28056;51.112;0.984;2023-05-01T08:48:06;100768.20;;;9.87;83.41
42411;BME280;28056;51.112;0.984;2023-05-01T08:50:34;100770.10;;;10.42;84.97
42411;BME280;28056;51.112;0.984;2023-05-01T08:53:02;100771.30;;;10.35;81.01
42411;BME280;28056;51.112;0.984;2023-05-01T08:55:30;100768.98;;;10.69;80.11
42411;BME280;28056;51.112;0.984;2023-05-01T08:57:58;100773.01;;;9.99;82.30
42411;BME280;28056;51.112;0.984;2023-05-01T09:00:28;100774.38;;;10.44;82.62
42411;BME280;28056;51.112;0.984;2023-05-01T09:03:00;100777.87;;;10.55;80.78
42411;BME280;28056;51.112;0.984;2023-05-01T09:05:28;100778.12;;;10.88;77.60
42411;BME280;28056;51.112;0.984;2023-05-01T09:07:58;100782.69;;;11.27;78.83
42411;BME280;28056;51.112;0.984;2023-05-01T09:10:26;100783.65;;;10.29;75.64
42411;BME280;28056;51.112;0.984;2023-05-01T09:12:55;100786.05;;;10.86;77.16
42411;BME280;28056;51.112;0.984;2023-05-01T09:15:24;100790.96;;;10.52;78.47
42411;BME280;28056;51.112;0.984;2023-05-01T09:17:53;100796.16;;;10.43;77.35
42411;BME280;28056;51.112;0.984;2023-05-01T09:20:20;100792.63;;;10.28;77.47
42411;BME280;28056;51.112;0.984;2023-05-01T09:22:49;100796.08;;;10.93;77.21
42411;BME280;28056;51.112;0.984;2023-05-01T09:25:16;100793.22;;;11.06;78.03
42411;BME280;28056;51.112;0.984;2023-05-01T09:27:44;100795.59;;;10.66;76.40
42411;BME280;28056;51.112;0.984;2023-05-01T09:30:30;100793.55;;;10.75;77.43
42411;BME280;28056;51.112;0.984;2023-05-01T09:33:06;100792.49;;;10.70;75.70
42411;BME280;28056;51.112;0.984;2023-05-01T09:35:48;100797.11;;;10.35;76.62
42411;BME280;28056;51.112;0.984;2023-05-01T09:38:18;100793.54;;;10.32;78.92
42411;BME280;28056;51.112;0.984;2023-05-01T09:40:46;100789.94;;;11.12;77.96
42411;BME280;28056;51.112;0.984;2023-05-01T09:43:22;100793.23;;;11.56;77.31
42411;BME280;28056;51.112;0.984;2023-05-01T09:45:59;100791.80;;;10.78;78.50
42411;BME280;28056;51.112;0.984;2023-05-01T09:48:27;100793.57;;;11.29;76.53
42411;BME280;28056;51.112;0.984;2023-05-01T09:50:54;100799.40;;;10.96;76.05
42411;BME280;28056;51.112;0.984;2023-05-01T09:53:36;100801.08;;;11.28;76.46
42411;BME280;28056;51.112;0.984;2023-05-01T09:56:03;100798.98;;;11.94;74.57
42411;BME280;28056;51.112;0.984;2023-05-01T09:58:31;100800.94;;;11.51;72.63
42411;BME280;28056;51.112;0.984;2023-05-01T10:00:58;100805.60;;;11.53;74.89
42411;BME280;28056;51.112;0.984;2023-05-01T10:03:25;100803.13;;;11.68;71.86
42411;BME280;28056;51.112;0.984;2023-05-01T10:05:53;100801.24;;;12.08;73.42
42411;BME280;28056;51.112;0.984;2023-05-01T10:08:21;100807.06;;;11.76;69.38
42411;BME280;28056;51.112;0.984;2023-05-01T10:10:59;100811.04;;;11.66;70.65
42411;BME280;28056;51.112;0.984;2023-05-01T10:13:28;100805.99;;;10.92;70.35
42411;BME280;28056;51.112;0.984;2023-05-01T10:15:56;100811.59;;;10.89;73.85
42411;BME280;28056;51.112;0.984;2023-05-01T10:18:24;100811.48;;;11.28;71.38
42411;BME280;28056;51.112;0.984;2023-05-01T10:20:51;100816.84;;;11.43;72.56
42411;BME280;28056;51.112;0.984;2023-05-01T10:23:19;100818.98;;;11.22;71.32
42411;BME280;28056;51.112;0.984;2023-05-01T10:25:48;100821.59;;;11.02;72.92
42411;BME280;28056;51.112;0.984;2023-05-01T10:28:19;100818.20;;;11.00;73.33
42411;BME280;28056;51.112;0.984;2023-05-01T10:30:48;100822.71;;;11.38;71.66
42411;BME280;28056;51.112;0.984;2023-05-01T10:33:16;100827.35;;;11.97;70.93
42411;BME280;28056;51.112;0.984;2023-05-01T10:35:47;100825.70;;;11.52;73.33
42411;BME280;28056;51.112;0.984;2023-05-01T10:38:21;100830.71;;;11.69;73.53
42411;BME280;28056;51.112;0.984;2023-05-01T10:40:49;100827.47;;;11.15;71.23
42411;BME280;28056;51.112;0.984;2023-05-01T10:43:19;100828.58;;;11.21;73.49
42411;BME280;28056;51.112;0.984;2023-05-01T10:45:47;100830.22;;;11.57;71.87
42411;BME280;28056;51.112;0.984;2023-05-01T10:49:19;100832.19;;;11.85;70.88
42411;BME280;28056;51.112;0.984;2023-05-01T10:51:58;100832.40;;;11.88;69.90
42411;BME280;28056;51.112;0.984;2023-05-01T10:54:26;100834.50;;;11.54;71.28
42411;BME280;28056;51.112;0.984;2023-05-01T10:56:55;100829.28;;;11.12;71.87
42411;BME280;28056;51.112;0.984;2023-05-01T10:59:22;100835.64;;;11.55;71.39
42411;BME280;28056;51.112;0.984;2023-05-01T11:01:51;100834.58;;;11.38;68.64
42411;BME280;28056;51.112;0.984;2023-05-01T11:04:51;100833.45;;;11.53;72.48
42411;BME280;28056;51.112;0.984;2023-05-01T11:07:19;100832.68;;;11.90;72.35
42411;BME280;28056;51.112;0.984;2023-05-01T11:09:48;100829.27;;;11.52;72.39
42411;BME280;28056;51.112;0.984;2023-05-01T11:12:47;100828.13;;;12.04;69.75
42411;BME280;28056;51.112;0.984;2023-05-01T11:15:26;100826.17;;;11.86;69.51
42411;BME280;28056;51.112;0.984;2023-05-01T11:18:00;100819.03;;;12.44;72.85
42411;BME280;28056;51.112;0.984;2023-05-01T11:21:00;100817.43;;;12.10;71.02
42411;BME280;28056;51.112;0.984;2023-05-01T11:23:28;100822.27;;;11.52;70.66
42411;BME280;28056;51.112;0.984;2023-05-01T11:26:03;100823.67;;;11.80;73.66
42411;BME280;28056;51.112;0.984;2023-05-01T11:28:30;100818.63;;;11.88;71.11
42411;BME280;28056;51.112;0.984;2023-05-01T11:30:58;100820.83;;;11.59;70.59
42411;BME280;28056;51.112;0.984;2023-05-01T11:33:25;100820.08;;;11.85;71.32
42411;BME280;28056;51.112;0.984;2023-05-01T11:35:57;100824.11;;;11.34;70.35
42411;BME280;28056;51.112;0.984;2023-05-01T11:38:25;100824.43;;;11.72;70.56
42411;BME280;28056;51.112;0.984;2023-05-01T11:40:57;100826.13;;;12.12;71.88
42411;BME280;28056;51.112;0.984;2023-05-01T11:43:25;100818.81;;;12.82;68.88
42411;BME280;28056;51.112;0.984;2023-05-01T11:45:53;100817.97;;;13.02;66.45
42411;BME280;28056;51.112;0.984;2023-05-01T11:48:20;100819.21;;;13.06;67.38
42411;BME280;28056;51.112;0.984;2023-05-01T11:50:47;100819.59;;;13.37;63.81
42411;BME280;28056;51.112;0.984;2023-05-01T11:53:15;100814.87;;;13.02;65.98
42411;BME280;28056;51.112;0.984;2023-05-01T11:55:43;100811.24;;;13.59;61.44
42411;BME280;28056;51.112;0.984;2023-05-01T11:58:12;100807.17;;;13.62;62.67
42411;BME280;28056;51.112;0.984;2023-05-01T12:00:40;100809.30;;;14.07;62.37
42411;BME280;28056;51.112;0.984;2023-05-01T12:03:09;100806.85;;;15.12;60.79
42411;BME280;28056;51.112;0.984;2023-05-01T12:05:38;100805.28;;;15.68;55.21
42411;BME280;28056;51.112;0.984;2023-05-01T12:08:11;100801.55;;;17.28;58.41
42411;BME280;28056;51.112;0.984;2023-05-01T12:10:40;100798.27;;;17.07;54.97
42411;BME280;28056;51.112;0.984;2023-05-01T12:13:10;100800.77;;;16.85;50.76
42411;BME280;28056;51.112;0.984;2023-05-01T12:15:41;100804.32;;;14.42;53.90
42411;BME280;28056;51.112;0.984;2023-05-01T12:18:09;100803.59;;;14.57;56.87
42411;BME280;28056;51.112;0.984;2023-05-01T12:20:38;100798.80;;;14.30;57.82
42411;BME280;28056;51.112;0.984;2023-05-01T12:23:07;100794.15;;;14.20;58.58
42411;BME280;28056;51.112;0.984;2023-05-01T12:25:35;100794.75;;;14.87;56.36
42411;BME280;28056;51.112;0.984;2023-05-01T12:28:06;100797.10;;;14.92;59.20
42411;BME280;28056;51.112;0.984;2023-05-01T12:30:34;100795.98;;;15.64;61.00
42411;BME280;28056;51.112;0.984;2023-05-01T12:33:08;100788.71;;;18.74;58.78
42411;BME280;28056;51.112;0.984;2023-05-01T12:35:35;100784.79;;;19.38;48.41
42411;BME280;28056;51.112;0.984;2023-05-01T12:38:10;100789.36;;;18.51;45.24
42411;BME280;28056;51.112;0.984;2023-05-01T12:40:38;100792.27;;;17.35;47.45
42411;BME280;28056;51.112;0.984;2023-05-01T12:43:06;100796.10;;;16.15;50.86
42411;BME280;28056;51.112;0.984;2023-05-01T12:45:41;100804.86;;;15.27;53.73
42411;BME280;28056;51.112;0.984;2023-05-01T12:48:11;100802.34;;;15.13;55.63
42411;BME280;28056;51.112;0.984;2023-05-01T12:50:39;100805.17;;;15.47;57.45
42411;BME280;28056;51.112;0.984;2023-05-01T12:53:07;100808.11;;;15.27;57.49
42411;BME280;28056;51.112;0.984;2023-05-01T12:55:44;100806.09;;;15.11;56.87
42411;BME280;28056;51.112;0.984;2023-05-01T12:58:12;100807.94;;;15.73;58.05
42411;BME280;28056;51.112;0.984;2023-05-01T13:00:43;100815.27;;;14.86;63.18
42411;BME280;28056;51.112;0.984;2023-05-01T13:03:11;100819.67;;;16.16;64.95
42411;BME280;28056;51.112;0.984;2023-05-01T13:05:51;100820.87;;;16.43;53.87